createdAt,value
2019-02-06T00:00:26.267Z,22.73
2019-02-06T00:02:59.313Z,22.83
2019-02-06T00:05:41.861Z,19.53
2019-02-06T00:08:24.134Z,20.90
2019-02-06T00:11:06.425Z,22.00
2019-02-06T00:13:48.883Z,20.03
2019-02-06T00:16:30.709Z,20.80
2019-02-06T00:19:12.871Z,20.30
2019-02-06T00:21:55.075Z,20.20
2019-02-06T00:24:36.588Z,20.77
2019-02-06T00:27:18.784Z,18.70
2019-02-06T00:30:01.041Z,17.90
2019-02-06T00:32:42.633Z,17.97
2019-02-06T00:35:25.931Z,18.83
2019-02-06T00:38:08.014Z,17.40
2019-02-06T00:40:49.983Z,17.40
2019-02-06T00:43:31.691Z,16.57
2019-02-06T00:46:13.727Z,16.80
2019-02-06T00:48:55.837Z,18.03
2019-02-06T00:51:38.121Z,18.40
2019-02-06T00:54:19.882Z,18.57
2019-02-06T00:57:02.138Z,19.10
2019-02-06T00:59:44.216Z,19.30
2019-02-06T01:02:25.663Z,21.03
2019-02-06T01:05:07.411Z,18.98
2019-02-06T01:07:49.123Z,20.00
2019-02-06T01:10:31.090Z,19.87
2019-02-06T01:13:12.903Z,18.53
2019-02-06T01:15:55.295Z,18.67
2019-02-06T01:18:37.267Z,18.80
2019-02-06T01:21:19.703Z,18.03
2019-02-06T01:24:01.551Z,16.70
2019-02-06T01:26:43.316Z,16.70
2019-02-06T01:29:25.906Z,17.83
2019-02-06T01:32:07.830Z,17.30
2019-02-06T01:34:49.631Z,17.50
2019-02-06T01:37:31.841Z,16.93
2019-02-06T01:40:13.780Z,17.07
2019-02-06T01:42:56.095Z,15.50
2019-02-06T01:45:38.379Z,15.67
2019-02-06T01:48:20.491Z,16.37
2019-02-06T01:51:02.320Z,16.60
2019-02-06T01:53:44.483Z,16.47
2019-02-06T01:56:26.688Z,16.93
2019-02-06T02:01:51.433Z,15.63
2019-02-06T02:04:33.796Z,17.13
2019-02-06T02:07:16.099Z,17.48
2019-02-06T02:09:58.219Z,18.50
2019-02-06T02:16:21.915Z,17.67
2019-02-06T02:19:04.283Z,17.80
2019-02-06T02:21:46.235Z,17.47
2019-02-06T02:24:28.447Z,18.33
2019-02-06T02:27:11.080Z,16.57
2019-02-06T02:29:53.105Z,17.13
2019-02-06T02:32:35.108Z,16.77
2019-02-06T02:35:16.967Z,15.23
2019-02-06T02:37:59.052Z,16.40
2019-02-06T02:40:41.065Z,16.33
2019-02-06T02:43:23.898Z,16.83
2019-02-06T02:46:06.055Z,15.93
2019-02-06T02:48:48.285Z,17.37
2019-02-06T02:51:30.075Z,16.63
2019-02-06T02:54:12.183Z,17.57
2019-02-06T02:56:54.298Z,17.50
2019-02-06T02:59:36.426Z,18.20
2019-02-06T03:02:25.734Z,16.70
2019-02-06T03:08:43.889Z,16.13
2019-02-06T03:11:34.731Z,15.50
2019-02-06T03:14:42.970Z,14.97
2019-02-06T03:17:33.748Z,14.43
2019-02-06T03:20:22.906Z,15.60
2019-02-06T03:23:11.917Z,14.30
2019-02-06T03:26:00.991Z,15.33
2019-02-06T03:28:49.956Z,15.23
2019-02-06T03:31:38.903Z,15.87
2019-02-06T03:34:27.798Z,14.13
2019-02-06T03:37:16.888Z,15.63
2019-02-06T03:40:28.940Z,15.60
2019-02-06T03:43:38.877Z,15.03
2019-02-06T03:46:27.897Z,13.03
2019-02-06T03:49:16.995Z,14.70
2019-02-06T03:52:07.916Z,13.93
2019-02-06T03:54:56.889Z,15.23
2019-02-06T03:57:45.830Z,15.87
2019-02-06T04:00:55.840Z,16.17
2019-02-06T04:03:44.835Z,14.60
2019-02-06T04:07:00.263Z,16.23
2019-02-06T04:10:03.180Z,15.83
2019-02-06T04:12:52.116Z,15.53
2019-02-06T04:15:41.092Z,14.10
2019-02-06T04:18:31.895Z,15.20
2019-02-06T04:21:35.238Z,13.93
2019-02-06T04:24:17.474Z,15.63
2019-02-06T04:26:59.316Z,14.67
2019-02-06T04:29:48.203Z,15.07
2019-02-06T04:32:37.090Z,15.00
2019-02-06T04:35:45.408Z,15.03
2019-02-06T04:38:55.333Z,15.47
2019-02-06T04:41:44.286Z,16.63
2019-02-06T04:44:33.120Z,15.70
2019-02-06T04:47:22.059Z,16.13
2019-02-06T04:50:31.851Z,15.47
2019-02-06T04:53:20.968Z,15.87
2019-02-06T04:56:10.084Z,15.80
2019-02-06T04:58:59.030Z,15.40
2019-02-06T05:01:47.920Z,16.00
2019-02-06T05:04:36.904Z,16.07
2019-02-06T05:07:27.003Z,14.70
2019-02-06T05:10:16.099Z,14.73
2019-02-06T05:13:26.044Z,12.77
2019-02-06T05:16:15.104Z,13.97
2019-02-06T05:19:04.061Z,14.87
2019-02-06T05:21:53.030Z,14.53
2019-02-06T05:24:42.009Z,13.37
2019-02-06T05:27:30.962Z,13.43
2019-02-06T05:30:40.972Z,15.50
2019-02-06T05:33:29.909Z,14.47
2019-02-06T05:36:19.109Z,16.23
2019-02-06T05:39:08.315Z,16.17
2019-02-06T05:42:18.216Z,15.73
2019-02-06T05:45:09.091Z,15.13
2019-02-06T05:47:58.039Z,16.30
2019-02-06T05:50:47.019Z,16.13
2019-02-06T05:53:37.438Z,15.57
2019-02-06T05:56:26.339Z,13.93
2019-02-06T05:59:36.261Z,14.17
2019-02-06T06:02:25.239Z,13.27
2019-02-06T06:05:33.483Z,13.50
2019-02-06T06:08:22.420Z,15.20
2019-02-06T06:11:11.383Z,14.67
2019-02-06T06:14:00.272Z,15.23
2019-02-06T06:16:49.231Z,14.27
2019-02-06T06:19:38.184Z,15.00
2019-02-06T06:22:27.162Z,14.33
2019-02-06T06:25:18.672Z,15.10
2019-02-06T06:28:28.593Z,14.70
2019-02-06T06:31:17.560Z,15.50
2019-02-06T06:34:06.452Z,15.53
2019-02-06T06:36:56.849Z,15.73
2019-02-06T06:40:26.167Z,20.33
2019-02-06T06:43:34.383Z,16.27
2019-02-06T06:46:23.360Z,16.30
2019-02-06T06:49:12.362Z,16.03
2019-02-06T06:52:03.889Z,16.83
2019-02-06T06:55:34.940Z,17.30
2019-02-06T06:58:42.294Z,15.67
2019-02-06T07:01:52.165Z,15.73
2019-02-06T07:04:41.107Z,17.40
2019-02-06T07:07:30.114Z,16.80
2019-02-06T07:10:19.167Z,16.47
2019-02-06T07:13:08.375Z,13.80
2019-02-06T07:16:00.238Z,17.97
2019-02-06T07:19:08.320Z,17.02
2019-02-06T07:22:09.434Z,14.28
2019-02-06T07:24:51.762Z,14.07
2019-02-06T07:27:33.394Z,16.40
2019-02-06T07:30:15.611Z,15.80
2019-02-06T07:32:45.200Z,15.77
2019-02-06T07:35:34.184Z,17.40
2019-02-06T07:38:24.570Z,15.50
2019-02-06T07:41:33.284Z,16.70
2019-02-06T07:44:22.348Z,15.63
2019-02-06T07:47:11.333Z,15.43
2019-02-06T07:50:38.974Z,16.10
2019-02-06T07:53:28.205Z,16.10
2019-02-06T07:56:17.377Z,16.20
2019-02-06T07:59:06.528Z,15.83
2019-02-06T08:01:55.519Z,16.30
2019-02-06T08:04:44.482Z,15.23
2019-02-06T08:07:33.395Z,15.10
2019-02-06T08:10:41.743Z,14.60
2019-02-06T08:13:30.638Z,14.43
2019-02-06T08:16:00.264Z,14.40
2019-02-06T08:18:29.812Z,14.73
2019-02-06T08:20:59.934Z,15.68
2019-02-06T08:23:29.727Z,17.07
2019-02-06T08:25:59.271Z,18.40
2019-02-06T08:28:28.859Z,18.57
2019-02-06T08:30:58.988Z,16.87
2019-02-06T08:33:28.722Z,16.20
2019-02-06T08:35:58.255Z,16.60
2019-02-06T08:38:27.827Z,18.87
2019-02-06T08:40:57.364Z,18.70
2019-02-06T08:43:27.857Z,17.30
2019-02-06T08:45:57.321Z,16.63
2019-02-06T08:48:26.868Z,15.70
2019-02-06T08:50:56.392Z,15.20
2019-02-06T08:53:25.949Z,15.57
2019-02-06T08:55:56.000Z,15.95
2019-02-06T08:58:25.817Z,15.63
2019-02-06T09:00:55.817Z,15.48
2019-02-06T09:03:25.416Z,14.43
2019-02-06T09:05:55.028Z,16.00
2019-02-06T09:08:24.833Z,14.73
2019-02-06T09:10:54.565Z,15.07
2019-02-06T09:13:24.110Z,16.17
2019-02-06T09:15:53.948Z,15.80
2019-02-06T09:18:23.926Z,15.37
2019-02-06T09:20:53.443Z,14.87
2019-02-06T09:23:22.921Z,15.93
2019-02-06T09:25:52.458Z,17.07
2019-02-06T09:28:21.974Z,15.57
2019-02-06T09:30:51.536Z,16.40
2019-02-06T09:33:20.994Z,17.70
2019-02-06T09:35:51.083Z,16.12
2019-02-06T09:38:20.874Z,17.77
2019-02-06T09:40:50.386Z,17.10
2019-02-06T09:43:19.946Z,16.70
2019-02-06T09:45:50.072Z,17.27
2019-02-06T09:48:19.511Z,17.73
2019-02-06T09:50:49.272Z,16.57
2019-02-06T09:53:18.962Z,18.57
2019-02-06T09:55:49.207Z,17.05
2019-02-06T09:58:18.884Z,16.87
2019-02-06T10:00:49.267Z,16.73
2019-02-06T10:03:18.912Z,17.00
2019-02-06T10:05:49.192Z,16.37
2019-02-06T10:08:19.575Z,17.23
2019-02-06T10:10:49.336Z,18.53
2019-02-06T10:13:18.989Z,16.60
2019-02-06T10:15:49.269Z,16.95
2019-02-06T10:18:18.914Z,17.90
2019-02-06T10:20:49.486Z,20.30
2019-02-06T10:23:18.932Z,18.80
2019-02-06T10:25:49.271Z,20.20
2019-02-06T10:28:18.965Z,17.93
2019-02-06T10:30:49.586Z,19.90
2019-02-06T10:33:19.421Z,19.80
2019-02-06T10:35:51.919Z,19.13
2019-02-06T10:38:20.372Z,18.60
2019-02-06T10:40:50.133Z,17.67
2019-02-06T10:43:31.240Z,17.00
2019-02-06T10:45:51.208Z,18.00
2019-02-06T10:48:20.979Z,17.30
2019-02-06T10:50:50.450Z,16.83
2019-02-06T10:53:20.062Z,15.87
2019-02-06T10:55:49.695Z,17.03
2019-02-06T10:58:19.900Z,17.63
2019-02-06T11:00:54.479Z,18.10
2019-02-06T11:03:24.001Z,17.63
2019-02-06T11:05:53.519Z,19.10
2019-02-06T11:08:23.018Z,17.47
2019-02-06T11:10:52.595Z,20.63
2019-02-06T11:13:22.099Z,20.73
2019-02-06T11:15:51.639Z,22.33
2019-02-06T11:18:21.241Z,19.50
2019-02-06T11:20:51.274Z,19.87
2019-02-06T11:23:21.038Z,20.90
2019-02-06T11:25:50.828Z,19.60
2019-02-06T11:28:20.267Z,19.73
2019-02-06T11:30:49.840Z,20.13
2019-02-06T11:33:19.360Z,18.77
2019-02-06T11:35:49.431Z,19.80
2019-02-06T11:38:19.095Z,18.53
2019-02-06T11:40:49.393Z,18.65
2019-02-06T11:43:19.124Z,17.10
2019-02-06T11:45:49.374Z,18.80
2019-02-06T11:48:19.023Z,19.00
2019-02-06T11:50:49.534Z,18.85
2019-02-06T11:53:20.117Z,18.50
2019-02-06T11:55:50.306Z,18.57
2019-02-06T11:58:19.676Z,17.50
2019-02-06T12:00:51.061Z,19.37
2019-02-06T12:03:22.254Z,18.60
2019-02-06T12:05:52.269Z,18.67
2019-02-06T12:08:21.701Z,17.90
2019-02-06T12:10:51.393Z,19.70
2019-02-06T12:13:21.109Z,19.83
2019-02-06T12:15:50.637Z,17.23
2019-02-06T12:18:20.332Z,18.17
2019-02-06T12:20:51.408Z,17.50
2019-02-06T12:23:32.008Z,17.13
2019-02-06T12:25:52.394Z,17.97
2019-02-06T12:28:22.177Z,17.27
2019-02-06T12:30:51.657Z,17.90
2019-02-06T12:33:21.180Z,17.40
2019-02-06T12:35:50.685Z,17.57
2019-02-06T12:38:20.260Z,17.13
2019-02-06T12:40:50.283Z,16.90
2019-02-06T12:43:19.822Z,18.87
2019-02-06T12:45:49.512Z,17.37
2019-02-06T12:48:19.902Z,16.60
2019-02-06T12:50:49.549Z,17.97
2019-02-06T12:53:19.250Z,18.50
2019-02-06T12:55:49.558Z,19.07
2019-02-06T12:58:19.311Z,19.07
2019-02-06T13:00:49.542Z,16.97
2019-02-06T13:03:19.248Z,18.30
2019-02-06T13:05:49.608Z,17.77
2019-02-06T13:08:19.263Z,18.40
2019-02-06T13:10:49.580Z,20.97
2019-02-06T13:13:19.584Z,18.90
2019-02-06T13:15:49.542Z,27.43
2019-02-06T13:18:19.206Z,18.30
2019-02-06T13:20:51.505Z,18.37
2019-02-06T13:23:20.678Z,18.17
2019-02-06T13:25:50.494Z,19.60
2019-02-06T13:28:20.183Z,17.17
2019-02-06T13:30:49.666Z,19.07
2019-02-06T13:33:19.231Z,18.63
2019-02-06T13:35:49.489Z,18.85
2019-02-06T13:38:18.855Z,19.67
2019-02-06T13:40:49.506Z,19.15
2019-02-06T13:43:22.147Z,18.93
2019-02-06T13:45:51.719Z,19.30
2019-02-06T13:48:24.251Z,18.20
2019-02-06T13:50:53.854Z,19.07
2019-02-06T13:53:23.293Z,19.53
2019-02-06T13:55:53.285Z,20.40
2019-02-06T13:58:22.843Z,19.17
2019-02-06T14:00:52.720Z,20.27
2019-02-06T14:03:22.303Z,19.93
2019-02-06T14:05:51.817Z,19.93
2019-02-06T14:08:22.977Z,21.03
2019-02-06T14:11:00.415Z,20.50
2019-02-06T14:13:23.620Z,20.43
2019-02-06T14:15:53.448Z,18.60
2019-02-06T14:18:42.440Z,19.87
2019-02-06T14:21:50.774Z,20.53
2019-02-06T14:25:02.213Z,19.43
2019-02-06T14:28:12.238Z,19.57
2019-02-06T14:31:22.336Z,19.27
2019-02-06T14:34:33.787Z,18.40
2019-02-06T14:38:01.546Z,17.87
2019-02-06T14:41:09.859Z,16.70
2019-02-06T14:43:53.575Z,18.57
2019-02-06T14:46:36.194Z,17.20
2019-02-06T14:49:37.943Z,17.13
2019-02-06T14:52:47.857Z,16.13
2019-02-06T14:55:57.751Z,18.03
2019-02-06T14:59:09.047Z,17.07
2019-02-06T15:02:36.756Z,18.00
2019-02-06T15:05:48.092Z,19.17
2019-02-06T15:09:17.232Z,18.77
2019-02-06T15:12:44.980Z,20.07
2019-02-06T15:15:54.883Z,21.97
2019-02-06T15:19:04.928Z,20.93
2019-02-06T15:22:26.395Z,20.90
2019-02-06T15:25:37.800Z,24.07
2019-02-06T15:28:39.539Z,24.70
2019-02-06T15:31:22.099Z,33.10
2019-02-06T15:34:04.644Z,26.37
2019-02-06T15:36:46.706Z,26.10
2019-02-06T15:39:32.621Z,23.70
2019-02-06T15:42:15.488Z,26.97
2019-02-06T15:44:57.425Z,25.93
2019-02-06T15:47:39.121Z,25.63
2019-02-06T15:50:26.845Z,23.57
2019-02-06T15:53:05.070Z,24.17
2019-02-06T15:55:47.511Z,23.70
2019-02-06T15:58:29.459Z,23.90
2019-02-06T16:01:11.242Z,23.17
2019-02-06T16:04:12.668Z,24.13
2019-02-06T16:06:56.151Z,23.10
2019-02-06T16:09:38.346Z,23.17
2019-02-06T16:12:20.786Z,23.27
2019-02-06T16:15:03.323Z,24.30
2019-02-06T16:17:45.296Z,25.50
2019-02-06T16:20:27.380Z,26.13
2019-02-06T16:23:08.595Z,26.30
2019-02-06T16:25:56.279Z,25.30
2019-02-06T16:28:44.059Z,24.30
2019-02-06T16:31:39.353Z,25.47
2019-02-06T16:34:36.340Z,34.87
2019-02-06T16:37:28.538Z,33.10
2019-02-06T16:40:09.680Z,28.37
2019-02-06T16:42:57.603Z,29.87
2019-02-06T16:45:36.323Z,30.03
2019-02-06T16:48:20.258Z,33.17
2019-02-06T16:50:53.148Z,33.77
2019-02-06T16:53:28.689Z,31.10
2019-02-06T16:56:13.583Z,27.60
2019-02-06T16:58:58.081Z,25.67
2019-02-06T17:01:45.557Z,27.07
2019-02-06T17:04:32.700Z,25.23
2019-02-06T17:07:11.739Z,23.92
2019-02-06T17:10:19.438Z,24.03
2019-02-06T17:13:10.951Z,23.12
2019-02-06T17:15:58.599Z,25.30
2019-02-06T17:18:45.974Z,23.40
2019-02-06T17:21:39.572Z,23.40
2019-02-06T17:24:14.857Z,23.67
2019-02-06T17:26:59.296Z,24.97
2019-02-06T17:29:46.965Z,26.13
2019-02-06T17:32:19.927Z,23.63
2019-02-06T17:35:28.813Z,24.67
2019-02-06T17:38:40.163Z,29.23
2019-02-06T17:42:15.747Z,22.40
2019-02-06T17:45:38.683Z,22.30
2019-02-06T17:48:48.593Z,19.10
2019-02-06T17:51:58.521Z,21.00
2019-02-06T17:55:08.652Z,21.93
2019-02-06T17:57:50.731Z,20.10
2019-02-06T18:00:32.919Z,19.03
2019-02-06T18:03:15.402Z,20.82
2019-02-06T18:05:57.740Z,22.43
2019-02-06T18:08:39.455Z,21.30
2019-02-06T18:11:21.420Z,21.37
2019-02-06T18:14:03.676Z,20.53
2019-02-06T18:16:45.268Z,19.90
2019-02-06T18:19:26.776Z,20.90
2019-02-06T18:22:08.670Z,20.53
2019-02-06T18:24:50.585Z,19.77
2019-02-06T18:27:32.397Z,19.90
2019-02-06T18:30:14.547Z,20.23
2019-02-06T18:32:56.975Z,23.10
2019-02-06T18:35:38.858Z,21.73
2019-02-06T18:38:21.611Z,23.03
2019-02-06T18:41:03.562Z,22.60
2019-02-06T18:43:45.768Z,22.00
2019-02-06T18:46:28.542Z,21.60
2019-02-06T18:49:10.188Z,18.77
2019-02-06T18:51:52.140Z,20.67
2019-02-06T18:54:34.047Z,21.17
2019-02-06T18:57:16.775Z,21.17
2019-02-06T18:59:58.472Z,19.80
2019-02-06T19:02:40.749Z,22.27
2019-02-06T19:05:22.343Z,21.37
2019-02-06T19:08:04.630Z,20.37
2019-02-06T19:10:46.882Z,20.20
2019-02-06T19:13:28.918Z,20.93
2019-02-06T19:16:11.718Z,22.05
2019-02-06T19:18:53.320Z,22.07
2019-02-06T19:21:35.741Z,22.10
2019-02-06T19:24:17.960Z,21.43
2019-02-06T19:26:59.577Z,21.77
2019-02-06T19:29:41.319Z,22.17
2019-02-06T19:32:23.631Z,21.07
2019-02-06T19:35:05.665Z,22.07
2019-02-06T19:37:48.450Z,23.10
2019-02-06T19:40:30.826Z,22.50
2019-02-06T19:43:12.644Z,23.57
2019-02-06T19:45:54.455Z,22.77
2019-02-06T19:48:36.689Z,21.70
2019-02-06T19:51:18.590Z,24.93
2019-02-06T19:54:00.759Z,20.17
2019-02-06T19:56:42.998Z,22.40
2019-02-06T19:59:25.648Z,22.87
2019-02-06T20:02:07.907Z,21.73
2019-02-06T20:04:49.517Z,20.43
2019-02-06T20:07:31.743Z,22.43
2019-02-06T20:10:14.787Z,23.27
2019-02-06T20:12:57.119Z,22.83
2019-02-06T20:15:38.897Z,24.67
2019-02-06T20:18:20.611Z,21.93
2019-02-06T20:21:02.832Z,22.50
2019-02-06T20:23:45.000Z,23.00
2019-02-06T20:26:26.976Z,23.07
2019-02-06T20:29:09.201Z,23.83
2019-02-06T20:31:51.299Z,24.60
2019-02-06T20:34:33.368Z,23.07
2019-02-06T20:37:16.471Z,22.60
2019-02-06T20:40:00.467Z,22.80
2019-02-06T20:42:43.332Z,22.27
2019-02-06T20:45:25.854Z,21.70
2019-02-06T20:48:07.850Z,25.70
2019-02-06T20:50:37.506Z,25.97
2019-02-06T20:53:07.160Z,25.63
2019-02-06T20:55:36.922Z,28.37
2019-02-06T20:58:06.960Z,25.60
2019-02-06T21:00:42.690Z,25.27
2019-02-06T21:03:13.882Z,25.63
2019-02-06T21:05:47.480Z,24.70
2019-02-06T21:08:17.155Z,23.83
2019-02-06T21:10:46.966Z,25.77
2019-02-06T21:13:18.999Z,29.90
2019-02-06T21:15:47.962Z,29.37
2019-02-06T21:18:20.505Z,30.63
2019-02-06T21:20:51.892Z,25.77
2019-02-06T21:23:21.643Z,24.27
2019-02-06T21:25:51.196Z,22.93
2019-02-06T21:28:20.956Z,23.33
2019-02-06T21:30:50.510Z,23.33
2019-02-06T21:33:20.400Z,21.93
2019-02-06T21:35:50.335Z,20.80
2019-02-06T21:38:20.010Z,22.97
2019-02-06T21:40:50.419Z,19.75
2019-02-06T21:43:19.980Z,20.63
2019-02-06T21:45:50.586Z,23.45
2019-02-06T21:48:22.260Z,22.87
2019-02-06T21:50:53.279Z,23.07
2019-02-06T21:53:23.095Z,23.03
2019-02-06T21:55:55.690Z,23.33
2019-02-06T21:58:25.189Z,20.97
2019-02-06T22:00:55.279Z,21.25
2019-02-06T22:04:03.976Z,20.77
2019-02-06T22:06:54.824Z,21.10
2019-02-06T22:09:43.791Z,20.90
2019-02-06T22:12:32.927Z,18.80
2019-02-06T22:15:07.634Z,19.87
2019-02-06T22:17:37.277Z,22.10
2019-02-06T22:20:09.743Z,23.10
2019-02-06T22:22:39.337Z,20.80
2019-02-06T22:25:09.449Z,19.80
2019-02-06T22:27:39.911Z,20.90
2019-02-06T22:30:20.679Z,20.70
2019-02-06T22:32:50.483Z,20.57
2019-02-06T22:35:20.122Z,20.80
2019-02-06T22:38:09.942Z,21.00
2019-02-06T22:40:39.508Z,18.20
2019-02-06T22:43:09.168Z,20.70
2019-02-06T22:45:38.698Z,19.20
2019-02-06T22:48:08.274Z,20.47
2019-02-06T22:50:38.056Z,16.90
2019-02-06T22:53:07.607Z,16.67
2019-02-06T22:55:37.219Z,18.20
2019-02-06T22:58:06.724Z,16.97
2019-02-06T23:00:49.834Z,17.30
2019-02-06T23:03:25.690Z,19.23
2019-02-06T23:05:55.234Z,18.57
2019-02-06T23:08:24.780Z,18.27
2019-02-06T23:10:54.331Z,18.63
2019-02-06T23:13:24.282Z,18.87
2019-02-06T23:15:54.426Z,19.12
2019-02-06T23:18:24.242Z,20.77
2019-02-06T23:20:54.434Z,18.80
2019-02-06T23:23:24.278Z,19.63
2019-02-06T23:25:54.363Z,19.93
2019-02-06T23:28:24.160Z,18.80
2019-02-06T23:30:53.677Z,19.47
2019-02-06T23:33:23.164Z,20.30
2019-02-06T23:35:52.689Z,19.07
2019-02-06T23:38:22.198Z,20.53
2019-02-06T23:40:52.414Z,19.23
2019-02-06T23:43:22.211Z,19.37
2019-02-06T23:45:51.723Z,19.60
2019-02-06T23:48:21.494Z,19.17
2019-02-06T23:50:51.328Z,18.40
2019-02-06T23:53:21.126Z,18.97
2019-02-06T23:55:50.639Z,19.00
2019-02-06T23:58:20.183Z,17.93
